Time;durP1;ratioP1;P1;durP2;ratioP2;P2;SDS_P1;SDS_P2;PMS_P1;PMS_P2;Temp;Humidity;BMP_temperature;BMP_pressure;BME280_temperature;BME280_humidity;BME280_pressure;Samples;Min_cycle;Max_cycle;Signal;HPM_P1;HPM_P2
2023/06/27 00:00:52;;;;;;;12.48;8.38;;;;;;;18.91;46.33;99322.16;5071975;28;20037;-61
2023/06/27 00:03:18;;;;;;;13.32;8.52;;;;;;;18.98;46.55;99344.00;5071154;28;20024;-61
2023/06/27 00:05:43;;;;;;;14.40;8.35;;;;;;;18.83;47.16;99348.59;5072036;28;20071;-64
2023/06/27 00:08:09;;;;;;;13.50;8.50;;;;;;;18.91;46.70;99349.28;5071498;28;20431;-61
2023/06/27 00:10:34;;;;;;;11.48;8.60;;;;;;;18.86;46.75;99357.16;5071790;28;20036;-60
2023/06/27 00:13:00;;;;;;;14.65;7.88;;;;;;;18.80;47.15;99353.34;5073010;28;20032;-62
2023/06/27 00:15:29;;;;;;;14.48;7.65;;;;;;;18.77;47.32;99353.72;5071699;28;20032;-61
2023/06/27 00:17:55;;;;;;;11.15;8.00;;;;;;;18.74;47.55;99356.81;5070632;28;20060;-61
2023/06/27 00:20:21;;;;;;;11.35;7.90;;;;;;;18.70;47.90;99358.22;5073024;28;20048;-62
2023/06/27 00:22:47;;;;;;;12.45;8.27;;;;;;;18.65;47.98;99355.25;5078480;28;20033;-62
2023/06/27 00:25:12;;;;;;;10.80;7.80;;;;;;;18.58;47.96;99341.59;5095973;28;20115;-61
2023/06/27 00:27:38;;;;;;;12.27;8.10;;;;;;;18.63;48.17;99355.41;5087286;28;20039;-61
2023/06/27 00:30:05;;;;;;;14.50;7.80;;;;;;;18.62;48.51;99353.75;5075180;28;20478;-62
2023/06/27 00:32:31;;;;;;;11.80;7.75;;;;;;;18.62;47.81;99339.34;5075259;28;20047;-61
2023/06/27 00:34:57;;;;;;;14.73;7.97;;;;;;;18.73;47.58;99348.88;5074663;28;20025;-61
2023/06/27 00:37:23;;;;;;;13.25;8.35;;;;;;;18.69;47.69;99337.56;5074134;28;20431;-62
2023/06/27 00:39:48;;;;;;;11.05;7.78;;;;;;;18.81;47.34;99340.63;5075102;28;20027;-62
2023/06/27 00:42:14;;;;;;;12.05;7.72;;;;;;;18.71;47.05;99307.56;5075194;28;20042;-62
2023/06/27 00:44:39;;;;;;;12.32;8.57;;;;;;;18.79;47.33;99332.69;5075073;28;20374;-61
2023/06/27 00:47:06;;;;;;;10.98;8.55;;;;;;;18.79;47.47;99332.69;5073841;28;20027;-63
2023/06/27 00:49:31;;;;;;;17.42;7.85;;;;;;;18.75;47.69;99336.81;5075190;28;20120;-61
2023/06/27 00:51:59;;;;;;;10.55;7.65;;;;;;;18.52;47.71;99304.41;5075446;28;20417;-62
2023/06/27 00:54:25;;;;;;;12.50;8.10;;;;;;;18.71;48.12;99340.94;5076068;28;20122;-61
2023/06/27 00:56:53;;;;;;;11.68;7.85;;;;;;;18.86;47.58;99348.22;5073644;28;20435;-61
2023/06/27 00:59:20;;;;;;;10.68;7.97;;;;;;;18.75;47.57;99339.50;5074138;28;20454;-61
2023/06/27 01:01:46;;;;;;;10.65;8.20;;;;;;;18.68;48.17;99335.03;5075739;28;20033;-63
2023/06/27 01:04:12;;;;;;;12.45;8.25;;;;;;;18.67;48.20;99338.78;5074894;28;20031;-61
2023/06/27 01:06:49;;;;;;;12.82;8.38;;;;;;;18.73;47.89;99338.88;5073956;28;20409;-61
2023/06/27 01:09:32;;;;;;;10.30;8.20;;;;;;;18.68;48.53;99335.88;5074969;28;20032;-62
2023/06/27 01:12:16;;;;;;;10.57;8.20;;;;;;;18.73;47.59;99338.88;5075138;28;20028;-60
2023/06/27 01:14:45;;;;;;;13.35;8.20;;;;;;;18.58;48.31;99330.75;5074001;28;20024;-61
2023/06/27 01:17:12;;;;;;;11.02;7.97;;;;;;;18.53;48.85;99327.78;5074447;28;20040;-62
2023/06/27 01:19:44;;;;;;;13.48;7.90;;;;;;;18.56;48.54;99335.53;5073783;28;20052;-63
2023/06/27 01:22:18;;;;;;;10.70;7.57;;;;;;;18.62;48.54;99331.22;5073371;28;20060;-61
2023/06/27 01:24:45;;;;;;;16.52;8.43;;;;;;;18.55;48.28;99322.16;5074574;28;20102;-61
2023/06/27 01:27:14;;;;;;;13.30;8.77;;;;;;;18.68;48.14;99329.59;5074307;28;20047;-63
2023/06/27 01:29:41;;;;;;;11.93;8.02;;;;;;;18.63;48.15;99324.78;5073481;28;20112;-60
2023/06/27 01:32:10;;;;;;;10.88;8.30;;;;;;;18.65;48.35;99334.38;5074090;28;20067;-62
2023/06/27 01:35:05;;;;;;;12.75;8.40;;;;;;;18.80;47.52;99328.94;5074070;28;20028;-61
2023/06/27 01:37:36;;;;;;;13.20;8.65;;;;;;;18.57;47.83;99299.25;5086217;28;20528;-62
2023/06/27 01:40:07;;;;;;;17.50;8.32;;;;;;;18.71;47.85;99318.41;5094769;28;20427;-63
2023/06/27 01:42:37;;;;;;;10.57;8.40;;;;;;;18.74;48.02;99326.97;5076612;28;20028;-61
2023/06/27 01:45:04;;;;;;;11.90;8.45;;;;;;;18.73;47.96;99321.78;5093169;28;20101;-62
2023/06/27 01:47:35;;;;;;;8.95;7.95;;;;;;;18.76;47.88;99327.63;5093090;28;20024;-62
2023/06/27 01:50:01;;;;;;;14.60;8.70;;;;;;;18.79;47.70;99321.00;5093473;28;20094;-61
2023/06/27 01:52:27;;;;;;;14.13;8.23;;;;;;;18.78;47.61;99312.00;5092289;28;20120;-62
2023/06/27 01:54:53;;;;;;;14.93;8.60;;;;;;;18.92;47.43;99314.88;5093108;28;20110;-62
2023/06/27 01:57:18;;;;;;;13.82;8.45;;;;;;;18.92;47.52;99314.88;5094181;28;20028;-62
2023/06/27 01:59:44;;;;;;;13.30;8.20;;;;;;;18.94;47.34;99308.25;5091173;28;20407;-62
2023/06/27 02:02:09;;;;;;;14.05;9.40;;;;;;;19.04;47.14;99318.81;5093900;28;20102;-61
2023/06/27 02:04:35;;;;;;;14.02;8.32;;;;;;;19.17;46.87;99311.84;5093784;28;20028;-61
2023/06/27 02:07:00;;;;;;;16.13;8.80;;;;;;;19.16;46.55;99316.41;5093586;28;20032;-61
2023/06/27 02:09:26;;;;;;;12.52;8.55;;;;;;;19.27;46.50;99325.94;5087956;28;20040;-61
2023/06/27 02:11:51;;;;;;;11.05;7.90;;;;;;;19.30;46.34;99320.16;5092484;28;20347;-61
2023/06/27 02:14:17;;;;;;;13.35;8.60;;;;;;;19.39;46.25;99337.13;5085657;28;20051;-62
2023/06/27 02:16:42;;;;;;;12.07;8.57;;;;;;;19.43;46.10;99327.56;5072200;28;20036;-63
2023/06/27 02:19:08;;;;;;;10.32;8.23;;;;;;;19.54;46.03;99328.94;5072817;28;20037;-60
2023/06/27 02:21:34;;;;;;;14.32;8.68;;;;;;;19.58;45.94;99332.06;5073266;28;20455;-62
2023/06/27 02:23:59;;;;;;;14.75;8.20;;;;;;;19.63;45.76;99324.19;5071802;28;20021;-61
2023/06/27 02:26:25;;;;;;;12.45;8.30;;;;;;;19.69;45.87;99333.44;5071856;28;20032;-62
2023/06/27 02:28:51;;;;;;;14.07;8.60;;;;;;;19.72;45.53;99330.31;5072369;28;20435;-63
2023/06/27 02:31:18;;;;;;;11.85;9.13;;;;;;;19.72;45.59;99344.75;5072453;28;20024;-61
2023/06/27 02:33:44;;;;;;;13.27;9.15;;;;;;;19.71;45.58;99334.91;5072728;28;20378;-61
2023/06/27 02:36:09;;;;;;;12.98;9.23;;;;;;;19.74;45.28;99333.66;5071958;28;20466;-61
2023/06/27 02:38:35;;;;;;;12.75;8.50;;;;;;;19.87;45.09;99331.06;5073296;28;20107;-62
2023/06/27 02:41:01;;;;;;;12.60;9.70;;;;;;;20.06;44.42;99334.19;5071899;28;20029;-61
2023/06/27 02:43:27;;;;;;;13.43;8.95;;;;;;;20.30;44.07;99318.44;5070841;28;20044;-62
2023/06/27 02:45:52;;;;;;;13.02;9.00;;;;;;;20.30;43.98;99310.28;5073203;28;20038;-62
2023/06/27 02:48:18;;;;;;;11.52;9.02;;;;;;;20.48;43.81;99321.44;5072726;28;20028;-61
2023/06/27 02:50:46;;;;;;;13.00;8.50;;;;;;;20.58;43.00;99323.81;5071229;28;20058;-61
2023/06/27 02:53:11;;;;;;;10.25;8.35;;;;;;;20.59;43.25;99319.22;5052426;28;20075;-62
2023/06/27 02:55:38;;;;;;;10.75;8.48;;;;;;;20.71;43.15;99327.63;5052989;28;20056;-62
2023/06/27 02:58:03;;;;;;;10.27;8.70;;;;;;;20.73;43.06;99326.38;5051951;28;20107;-61
2023/06/27 03:00:29;;;;;;;12.50;8.45;;;;;;;20.71;42.96;99317.59;5052549;28;20021;-61
2023/06/27 03:02:54;;;;;;;11.95;8.00;;;;;;;20.77;43.38;99326.81;5052439;28;20433;-62
2023/06/27 03:05:20;;;;;;;11.63;8.93;;;;;;;20.75;43.54;99318.88;5053195;28;20027;-61
2023/06/27 03:07:45;;;;;;;14.75;8.20;;;;;;;21.02;42.65;99323.59;5070097;28;20433;-61
2023/06/27 03:10:11;;;;;;;14.73;8.40;;;;;;;21.28;42.56;99314.66;5071165;28;20040;-62
2023/06/27 03:12:37;;;;;;;14.23;9.00;;;;;;;21.54;41.93;99326.63;5054831;28;20028;-61
2023/06/27 03:15:03;;;;;;;12.30;8.25;;;;;;;21.65;41.53;99306.94;5072622;28;20443;-62
2023/06/27 03:17:31;;;;;;;11.68;8.40;;;;;;;21.79;41.45;99317.88;5072714;28;20028;-61
2023/06/27 03:19:56;;;;;;;13.73;8.25;;;;;;;21.80;41.41;99320.38;5071789;28;20084;-61
2023/06/27 03:22:22;;;;;;;11.40;8.88;;;;;;;21.64;41.97;99310.72;5086121;28;20134;-61
2023/06/27 03:24:47;;;;;;;11.68;8.25;;;;;;;21.51;41.64;99316.16;5092766;28;20035;-62
2023/06/27 03:27:14;;;;;;;17.27;8.80;;;;;;;21.33;42.55;99320.31;5092732;28;20085;-61
2023/06/27 03:29:40;;;;;;;13.20;8.30;;;;;;;21.22;42.75;99324.47;5092256;28;20336;-60
2023/06/27 03:32:05;;;;;;;13.90;7.88;;;;;;;21.23;42.78;99319.88;5091297;28;20031;-62
2023/06/27 03:34:31;;;;;;;13.35;9.15;;;;;;;21.25;42.45;99323.25;5075073;28;20027;-62
2023/06/27 03:36:56;;;;;;;13.20;8.50;;;;;;;21.14;42.65;99321.97;5079132;28;20528;-61
2023/06/27 03:39:22;;;;;;;12.77;8.35;;;;;;;20.88;42.99;99296.34;5072352;28;20032;-61
2023/06/27 03:41:47;;;;;;;10.20;8.52;;;;;;;21.04;42.82;99322.34;5071868;28;20041;-62
2023/06/27 03:44:13;;;;;;;12.48;7.90;;;;;;;20.85;42.95;99317.69;5072324;28;20085;-62
2023/06/27 03:46:38;;;;;;;13.52;8.43;;;;;;;20.98;42.92;99311.44;5073220;28;20477;-61
2023/06/27 03:49:04;;;;;;;11.38;7.95;;;;;;;21.22;42.03;99302.69;5071886;28;20028;-62
2023/06/27 03:51:29;;;;;;;10.70;7.32;;;;;;;21.67;41.67;99314.94;5071745;28;20032;-62
2023/06/27 03:53:55;;;;;;;11.60;8.02;;;;;;;22.14;40.20;99314.06;5071851;28;20036;-62
2023/06/27 03:56:20;;;;;;;13.07;6.93;;;;;;;22.83;38.50;99305.47;5074751;28;20110;-62
2023/06/27 03:58:46;;;;;;;13.13;7.40;;;;;;;23.57;37.01;99311.31;5075446;28;20780;-63
2023/06/27 04:01:11;;;;;;;14.63;7.13;;;;;;;24.16;35.68;99308.31;5074717;28;20150;-63
2023/06/27 04:03:37;;;;;;;10.60;6.97;;;;;;;25.10;34.52;99308.28;5074998;28;20031;-62
2023/06/27 04:06:03;;;;;;;10.27;7.40;;;;;;;26.19;32.78;99315.41;5075889;28;20039;-61
2023/06/27 04:08:28;;;;;;;9.00;6.80;;;;;;;26.69;31.64;99324.16;5075807;28;20036;-61
2023/06/27 04:10:54;;;;;;;14.80;6.85;;;;;;;26.82;31.02;99300.25;5076127;28;20094;-62
2023/06/27 04:13:19;;;;;;;11.95;6.78;;;;;;;26.85;30.67;99302.53;5075428;28;20390;-62
2023/06/27 04:15:45;;;;;;;8.60;5.80;;;;;;;26.67;30.66;99304.34;5074233;28;20028;-62
2023/06/27 04:18:10;;;;;;;8.27;6.25;;;;;;;26.63;30.88;99308.66;5074356;28;20043;-60
2023/06/27 04:20:36;;;;;;;7.28;5.93;;;;;;;26.92;30.65;99300.47;5073832;28;20441;-61
2023/06/27 04:23:03;;;;;;;9.88;6.22;;;;;;;26.83;29.99;99278.03;5076291;28;20094;-61
2023/06/27 04:25:32;;;;;;;8.60;6.32;;;;;;;26.78;30.53;99308.97;5075962;28;20477;-64
2023/06/27 04:27:59;;;;;;;8.35;6.20;;;;;;;26.13;31.48;99305.38;5075457;28;20036;-62
2023/06/27 04:30:24;;;;;;;9.85;6.30;;;;;;;26.17;31.16;99286.56;5074577;28;20420;-62
2023/06/27 04:32:50;;;;;;;9.70;6.63;;;;;;;27.04;30.25;99295.78;5074305;28;20470;-62
2023/06/27 04:35:19;;;;;;;8.25;5.90;;;;;;;28.27;28.64;99294.50;5074277;28;20032;-62
2023/06/27 04:37:46;;;;;;;8.05;6.03;;;;;;;29.88;26.71;99289.56;5074227;28;20463;-62
2023/06/27 04:40:12;;;;;;;7.30;6.22;;;;;;;31.71;23.27;99262.28;5075175;28;20389;-63
2023/06/27 04:42:38;;;;;;;9.65;5.55;;;;;;;32.72;22.15;99293.84;5074777;28;20028;-60
2023/06/27 04:45:05;;;;;;;8.32;6.40;;;;;;;33.22;21.18;99293.03;5074739;28;20036;-62
2023/06/27 04:47:35;;;;;;;8.63;5.97;;;;;;;33.72;20.77;99297.66;5074877;28;20028;-61
2023/06/27 04:50:02;;;;;;;7.40;5.47;;;;;;;33.63;20.87;99287.19;5075197;28;20033;-63
2023/06/27 04:52:27;;;;;;;7.50;5.00;;;;;;;33.57;21.05;99293.06;5074554;28;20455;-62
2023/06/27 04:54:53;;;;;;;8.85;5.35;;;;;;;33.46;21.15;99286.78;5074634;28;20029;-62
2023/06/27 04:57:18;;;;;;;8.10;5.05;;;;;;;33.52;21.08;99296.75;5074337;28;20120;-61
2023/06/27 04:59:44;;;;;;;5.68;5.00;;;;;;;33.13;21.58;99300.31;5057343;28;20033;-63
2023/06/27 05:02:09;;;;;;;8.10;5.35;;;;;;;32.28;22.22;99300.09;5074730;28;20115;-62
2023/06/27 05:04:36;;;;;;;5.38;4.85;;;;;;;30.96;23.62;99302.28;5074842;28;20029;-62
2023/06/27 05:07:02;;;;;;;8.23;4.95;;;;;;;29.78;25.42;99306.06;5073448;28;20444;-61
2023/06/27 05:09:27;;;;;;;8.80;5.10;;;;;;;29.08;26.58;99304.84;5057309;28;20028;-62
2023/06/27 05:11:53;;;;;;;8.10;5.07;;;;;;;30.35;25.16;99289.84;5074217;28;20040;-61
2023/06/27 05:14:18;;;;;;;6.85;4.72;;;;;;;33.04;21.84;99295.38;5074476;28;20035;-60
2023/06/27 05:16:44;;;;;;;6.90;5.13;;;;;;;35.66;19.17;99298.59;5073599;28;20067;-61
2023/06/27 05:19:10;;;;;;;7.88;4.80;;;;;;;37.60;17.06;99291.22;5074388;28;20057;-61
2023/06/27 05:21:36;;;;;;;7.38;4.68;;;;;;;39.45;15.52;99296.56;5074735;28;20040;-62
2023/06/27 05:24:05;;;;;;;7.63;4.75;;;;;;;40.85;13.68;99291.63;5086439;28;20020;-70
2023/06/27 05:26:32;;;;;;;6.10;4.38;;;;;;;40.92;13.60;99293.88;5094658;28;20033;-62
2023/06/27 05:28:59;;;;;;;7.72;4.68;;;;;;;39.58;14.66;99298.38;5094922;28;20366;-62
2023/06/27 05:31:28;;;;;;;7.05;4.68;;;;;;;39.61;14.49;99297.72;5094788;28;20028;-63
2023/06/27 05:33:54;;;;;;;7.30;4.80;;;;;;;38.52;15.47;99310.59;5094358;28;20124;-62
2023/06/27 05:36:20;;;;;;;5.50;4.72;;;;;;;36.99;16.64;99293.47;5093105;28;20115;-62
2023/06/27 05:38:46;;;;;;;5.63;4.28;;;;;;;35.46;18.16;99295.81;5092683;28;20103;-64
2023/06/27 05:41:11;;;;;;;6.53;4.50;;;;;;;34.03;19.56;99300.19;5094421;28;20027;-63
2023/06/27 05:43:37;;;;;;;6.15;4.18;;;;;;;33.32;20.43;99294.91;5093262;28;20032;-63
2023/06/27 05:46:03;;;;;;;5.10;4.25;;;;;;;34.06;19.81;99294.03;5093119;28;20472;-67
2023/06/27 05:48:28;;;;;;;5.90;3.83;;;;;;;36.20;17.69;99285.94;5074609;28;20020;-62
2023/06/27 05:50:54;;;;;;;4.93;3.72;;;;;;;38.59;15.28;99286.59;5092934;28;20412;-62
2023/06/27 05:53:19;;;;;;;4.03;3.60;;;;;;;39.03;14.17;99297.88;5094062;28;20315;-62
2023/06/27 05:55:45;;;;;;;6.35;4.07;;;;;;;39.11;14.68;99273.84;5093875;28;20037;-63
2023/06/27 05:58:10;;;;;;;3.97;3.40;;;;;;;39.79;13.67;99286.47;5093680;28;20032;-62
2023/06/27 06:00:36;;;;;;;4.68;3.47;;;;;;;40.15;13.64;99281.56;5093991;28;20027;-63
2023/06/27 06:03:01;;;;;;;4.10;3.53;;;;;;;39.84;13.89;99272.31;5092013;28;20362;-63
2023/06/27 06:05:27;;;;;;;4.22;3.50;;;;;;;40.38;13.26;99276.53;5073749;28;20465;-63
2023/06/27 06:07:53;;;;;;;5.78;3.47;;;;;;;39.37;13.71;99286.22;5072438;28;20898;-62
2023/06/27 06:10:18;;;;;;;3.53;3.20;;;;;;;39.02;13.54;99259.84;5073440;28;20504;-63
2023/06/27 06:12:45;;;;;;;3.58;3.28;;;;;;;39.73;12.91;99284.97;5084558;28;20107;-64
2023/06/27 06:15:10;;;;;;;3.47;3.13;;;;;;;40.96;11.91;99273.19;5093615;28;20474;-64
2023/06/27 06:17:36;;;;;;;7.40;3.42;;;;;;;41.72;11.47;99267.56;5092199;28;20490;-64
2023/06/27 06:20:07;;;;;;;4.40;3.20;;;;;;;41.96;11.04;99253.88;5093777;28;20044;-64
2023/06/27 06:22:33;;;;;;;3.95;3.13;;;;;;;43.15;10.22;99271.72;5092007;28;20047;-63
2023/06/27 06:24:59;;;;;;;4.63;3.45;;;;;;;44.25;9.41;99303.66;5093033;28;20036;-62
2023/06/27 06:27:25;;;;;;;5.93;3.10;;;;;;;44.40;9.65;99262.50;5093302;28;20031;-63
2023/06/27 06:29:50;;;;;;;4.00;3.70;;;;;;;44.85;8.83;99289.34;5093640;28;20089;-61
2023/06/27 06:32:16;;;;;;;3.90;3.10;;;;;;;44.36;8.34;99284.97;5093050;28;20074;-62
2023/06/27 06:34:41;;;;;;;5.40;3.55;;;;;;;44.31;8.80;99293.75;5093135;28;20481;-62
2023/06/27 06:37:07;;;;;;;3.97;3.25;;;;;;;44.12;8.54;99269.91;5090838;28;20142;-62
2023/06/27 06:39:33;;;;;;;3.30;3.10;;;;;;;44.60;8.32;99266.22;5093432;28;20066;-64
2023/06/27 06:41:58;;;;;;;3.05;2.85;;;;;;;44.89;8.07;99272.50;5092994;28;20028;-63
2023/06/27 06:44:24;;;;;;;3.78;3.20;;;;;;;45.10;8.24;99266.50;5070863;28;20537;-64
2023/06/27 06:46:49;;;;;;;3.30;3.10;;;;;;;44.07;8.16;99284.25;5071450;28;20035;-64
2023/06/27 06:49:15;;;;;;;8.15;3.35;;;;;;;43.86;8.62;99279.72;5071725;28;20359;-66
2023/06/27 06:51:42;;;;;;;7.95;3.20;;;;;;;43.29;9.14;99270.53;5070886;28;20036;-63
2023/06/27 06:54:07;;;;;;;4.63;3.05;;;;;;;40.53;10.54;99260.28;5072690;28;20033;-64
2023/06/27 06:56:33;;;;;;;5.53;2.88;;;;;;;37.59;12.58;99258.84;5072796;28;20040;-63
2023/06/27 06:58:59;;;;;;;5.75;3.15;;;;;;;36.55;13.10;99284.69;5074426;28;20032;-64
2023/06/27 07:01:24;;;;;;;6.97;3.33;;;;;;;36.43;12.87;99276.81;5072458;28;20037;-63
2023/06/27 07:03:50;;;;;;;7.13;3.47;;;;;;;36.41;13.50;99282.69;5090611;28;20439;-65
2023/06/27 07:06:15;;;;;;;5.10;3.10;;;;;;;35.97;14.34;99281.34;5092656;28;20115;-65
2023/06/27 07:08:41;;;;;;;3.33;2.92;;;;;;;34.93;15.08;99282.97;5091542;28;20132;-62
2023/06/27 07:11:07;;;;;;;8.23;3.65;;;;;;;33.12;16.97;99271.75;5090603;28;20453;-61
2023/06/27 07:13:32;;;;;;;3.40;3.10;;;;;;;31.57;18.67;99248.16;5092194;28;20024;-62
2023/06/27 07:15:58;;;;;;;6.53;3.00;;;;;;;30.55;20.22;99282.78;5092579;28;20077;-63
2023/06/27 07:18:23;;;;;;;4.38;3.20;;;;;;;29.43;21.63;99266.88;5092726;28;20024;-62
2023/06/27 07:20:49;;;;;;;5.00;2.92;;;;;;;28.53;23.03;99267.28;5090998;28;20158;-64
2023/06/27 07:23:15;;;;;;;3.42;3.15;;;;;;;27.99;23.52;99274.25;5079952;28;20059;-62
2023/06/27 07:25:41;;;;;;;4.10;3.22;;;;;;;27.26;24.57;99256.59;5071937;28;20033;-61
2023/06/27 07:28:07;;;;;;;5.32;3.40;;;;;;;27.06;25.00;99268.88;5077285;28;20077;-61
2023/06/27 07:30:32;;;;;;;3.97;3.17;;;;;;;26.69;25.94;99271.97;5080410;28;20189;-55
2023/06/27 07:32:58;;;;;;;5.55;3.30;;;;;;;26.82;25.64;99270.84;5071806;28;20048;-52
2023/06/27 07:35:23;;;;;;;6.70;3.15;;;;;;;27.10;25.34;99282.13;5072271;28;20123;-53
2023/06/27 07:37:49;;;;;;;4.63;3.15;;;;;;;26.99;25.06;99267.38;5071740;28;20756;-54
2023/06/27 07:40:14;;;;;;;7.60;3.10;;;;;;;26.83;25.83;99257.97;5070883;28;20031;-53
2023/06/27 07:42:40;;;;;;;5.97;3.22;;;;;;;27.05;25.23;99271.88;5071236;28;20028;-57
2023/06/27 07:45:06;;;;;;;6.70;3.33;;;;;;;27.55;24.78;99247.44;5069776;28;20111;-54
2023/06/27 07:47:32;;;;;;;4.90;3.13;;;;;;;29.50;22.51;99273.00;5071739;28;20029;-51
2023/06/27 07:49:58;;;;;;;4.55;2.95;;;;;;;31.75;19.39;99245.91;5079667;28;20081;-53
2023/06/27 07:52:23;;;;;;;4.00;3.17;;;;;;;33.74;16.69;99251.84;5091663;28;20036;-55
2023/06/27 07:54:49;;;;;;;5.32;3.42;;;;;;;34.34;16.61;99252.59;5091487;28;20491;-57
2023/06/27 07:57:14;;;;;;;6.68;2.92;;;;;;;36.49;14.89;99268.06;5091830;28;20039;-53
2023/06/27 07:59:40;;;;;;;5.80;2.90;;;;;;;37.27;13.79;99252.38;5080251;28;20035;-60
2023/06/27 08:02:05;;;;;;;3.40;3.10;;;;;;;36.89;14.18;99242.38;5072073;28;20374;-53
2023/06/27 08:04:32;;;;;;;4.15;3.28;;;;;;;37.15;14.38;99244.59;5068747;28;20081;-54
2023/06/27 08:06:58;;;;;;;3.30;3.00;;;;;;;36.15;14.14;99233.06;5066435;28;20044;-55
2023/06/27 08:09:24;;;;;;;3.67;3.00;;;;;;;34.32;16.16;99269.56;5067802;28;20088;-58
2023/06/27 08:11:50;;;;;;;4.38;3.22;;;;;;;32.89;17.23;99240.03;5073684;28;20414;-57
2023/06/27 08:14:15;;;;;;;5.45;3.22;;;;;;;33.52;16.24;99241.25;5075711;28;20029;-59
2023/06/27 08:16:41;;;;;;;3.50;3.05;;;;;;;33.27;15.48;99229.19;5069753;28;20620;-60
2023/06/27 08:19:07;;;;;;;3.63;3.30;;;;;;;32.79;16.73;99258.31;5069042;28;20070;-54
2023/06/27 08:21:32;;;;;;;7.65;2.90;;;;;;;32.21;17.37;99234.75;5071183;28;20369;-55
2023/06/27 08:23:58;;;;;;;5.72;3.17;;;;;;;31.82;17.35;99246.50;5073869;28;20036;-53
2023/06/27 08:26:24;;;;;;;6.35;3.47;;;;;;;31.76;17.45;99244.81;5070811;28;20032;-54
2023/06/27 08:28:50;;;;;;;3.70;3.30;;;;;;;31.60;17.64;99264.22;5070042;28;20036;-55
2023/06/27 08:31:16;;;;;;;4.93;3.13;;;;;;;31.01;17.61;99233.19;5069883;28;20034;-54
2023/06/27 08:33:42;;;;;;;4.97;3.20;;;;;;;30.65;18.15;99247.75;5072335;28;20431;-55
2023/06/27 08:36:07;;;;;;;3.05;2.85;;;;;;;30.32;17.54;99260.88;5070951;28;20067;-61
2023/06/27 08:38:33;;;;;;;4.88;2.88;;;;;;;29.83;18.46;99241.81;5071321;28;20051;-61
2023/06/27 08:41:00;;;;;;;6.57;3.17;;;;;;;29.44;18.01;99264.97;5070504;28;20028;-62
2023/06/27 08:43:26;;;;;;;4.18;2.83;;;;;;;28.87;18.96;99245.94;5073825;28;20090;-60
2023/06/27 08:45:57;;;;;;;5.15;2.85;;;;;;;28.77;19.03;99241.13;5073161;28;20048;-61
2023/06/27 08:48:23;;;;;;;5.25;2.88;;;;;;;28.87;18.68;99254.22;5073334;28;20037;-60
2023/06/27 08:50:53;;;;;;;3.92;2.90;;;;;;;28.70;19.17;99258.94;5073859;28;20443;-60
2023/06/27 08:53:21;;;;;;;3.83;3.17;;;;;;;28.53;19.66;99250.78;5080437;28;20332;-55
2023/06/27 08:55:51;;;;;;;5.88;3.40;;;;;;;28.49;20.28;99244.94;5072877;28;20328;-58
2023/06/27 08:58:20;;;;;;;5.18;3.30;;;;;;;28.45;20.56;99230.03;5074151;28;20020;-58
2023/06/27 09:00:47;;;;;;;5.20;3.35;;;;;;;28.74;20.50;99229.78;5074783;28;20344;-58
2023/06/27 09:03:13;;;;;;;7.18;3.60;;;;;;;28.86;20.63;99229.66;5073388;28;20082;-59
2023/06/27 09:05:40;;;;;;;7.80;3.60;;;;;;;28.83;20.46;99220.00;5072682;28;20024;-60
2023/06/27 09:08:06;;;;;;;3.85;3.45;;;;;;;28.65;21.56;99221.16;5072433;28;20035;-54
2023/06/27 09:10:32;;;;;;;3.45;3.15;;;;;;;28.67;21.31;99210.69;5072522;28;20036;-60
2023/06/27 09:12:59;;;;;;;3.80;3.40;;;;;;;28.86;21.09;99233.28;5072529;28;20024;-61
2023/06/27 09:15:25;;;;;;;9.65;3.70;;;;;;;29.01;21.20;99220.72;5071870;28;20466;-59
2023/06/27 09:17:51;;;;;;;4.88;3.50;;;;;;;29.05;20.03;99217.19;5073334;28;20037;-56
2023/06/27 09:20:19;;;;;;;4.45;3.53;;;;;;;28.98;19.94;99221.25;5078308;28;20047;-58
2023/06/27 09:22:44;;;;;;;6.63;3.47;;;;;;;29.01;19.50;99218.81;5075545;28;20168;-59
2023/06/27 09:25:12;;;;;;;5.38;3.20;;;;;;;29.09;19.42;99234.03;5075256;28;20545;-59
2023/06/27 09:27:38;;;;;;;7.95;3.67;;;;;;;28.89;20.00;99209.84;5074356;28;20029;-55
2023/06/27 09:30:08;;;;;;;3.70;3.28;;;;;;;28.77;19.86;99224.59;5080442;28;20051;-58
2023/06/27 09:32:50;;;;;;;4.53;3.15;;;;;;;28.30;20.21;99227.91;5073419;28;20089;-59
2023/06/27 09:35:16;;;;;;;3.67;3.28;;;;;;;28.02;21.01;99221.47;5091832;28;20135;-56
2023/06/27 09:37:41;;;;;;;7.43;3.70;;;;;;;27.81;20.66;99196.44;5093819;28;20344;-66
2023/06/27 09:40:20;;;;;;;3.95;3.40;;;;;;;27.91;20.58;99202.06;5093906;28;20074;-57
2023/06/27 09:42:54;;;;;;;4.18;3.38;;;;;;;28.36;20.43;99204.88;5093908;28;20346;-58
2023/06/27 09:45:20;;;;;;;6.47;3.45;;;;;;;28.67;19.84;99205.19;5085894;28;20056;-59
2023/06/27 09:47:50;;;;;;;3.58;3.28;;;;;;;28.76;19.93;99211.91;5073072;28;20029;-57
2023/06/27 09:50:16;;;;;;;7.10;3.30;;;;;;;28.77;20.07;99202.56;5090442;28;20435;-57
2023/06/27 09:53:02;;;;;;;3.78;3.42;;;;;;;29.00;20.03;99205.28;5093034;28;20043;-61
2023/06/27 09:55:28;;;;;;;3.92;3.10;;;;;;;29.15;19.47;99188.03;5074046;28;20043;-60
2023/06/27 09:57:54;;;;;;;3.97;3.60;;;;;;;29.31;19.68;99208.31;5073511;28;20024;-59
2023/06/27 10:00:21;;;;;;;5.60;3.38;;;;;;;29.41;19.74;99194.63;5075069;28;20036;-60
2023/06/27 10:02:48;;;;;;;4.10;3.63;;;;;;;29.45;19.69;99198.50;5072938;28;20095;-58
2023/06/27 10:05:22;;;;;;;3.80;3.47;;;;;;;29.12;19.99;99207.88;5073163;28;20036;-56
2023/06/27 10:07:53;;;;;;;4.10;3.58;;;;;;;28.51;20.85;99193.19;5073055;28;20025;-61
2023/06/27 10:10:25;;;;;;;3.50;3.20;;;;;;;27.80;21.32;99195.59;5072441;28;20390;-53
2023/06/27 10:12:51;;;;;;;4.28;3.88;;;;;;;27.58;21.52;99206.56;5072931;28;20028;-55
2023/06/27 10:15:17;;;;;;;5.43;3.85;;;;;;;27.29;21.78;99176.41;5072819;28;20039;-55
2023/06/27 10:17:45;;;;;;;5.38;4.20;;;;;;;27.20;22.27;99188.88;5091091;28;20369;-59
2023/06/27 10:20:11;;;;;;;4.18;3.60;;;;;;;27.22;22.19;99179.31;5091606;28;20127;-57
2023/06/27 10:22:44;;;;;;;8.38;4.18;;;;;;;27.07;22.30;99190.03;5093639;28;20036;-54
2023/06/27 10:25:10;;;;;;;6.45;4.00;;;;;;;26.93;22.63;99179.38;5075861;28;20375;-56
2023/06/27 10:27:39;;;;;;;4.20;3.70;;;;;;;26.96;22.76;99191.78;5072595;28;20478;-58
2023/06/27 10:30:20;;;;;;;3.70;3.40;;;;;;;26.88;22.67;99193.00;5072303;28;20028;-55
2023/06/27 10:32:47;;;;;;;4.68;3.75;;;;;;;26.76;23.08;99198.53;5075626;28;20044;-56
2023/06/27 10:35:27;;;;;;;4.43;3.53;;;;;;;26.76;23.31;99179.31;5072984;28;20040;-55
2023/06/27 10:38:14;;;;;;;5.32;3.80;;;;;;;26.88;23.24;99181.19;5071921;28;20032;-54
2023/06/27 10:41:10;;;;;;;7.97;4.10;;;;;;;27.05;22.92;99186.69;5073648;28;20363;-53
2023/06/27 10:43:40;;;;;;;6.00;4.13;;;;;;;26.96;23.31;99186.28;5067508;28;20040;-54
2023/06/27 10:46:16;;;;;;;5.03;3.60;;;;;;;27.14;22.92;99179.72;5075515;28;20043;-57
2023/06/27 10:48:49;;;;;;;4.13;3.75;;;;;;;27.18;23.09;99182.78;5086776;28;20028;-62
2023/06/27 10:51:19;;;;;;;4.57;4.07;;;;;;;27.00;23.22;99170.97;5074250;28;20040;-59
2023/06/27 10:54:08;;;;;;;5.28;3.72;;;;;;;27.14;23.26;99178.88;5071508;28;20123;-60
2023/06/27 10:56:37;;;;;;;4.07;3.50;;;;;;;27.18;22.67;99166.31;5062426;28;20457;-59
2023/06/27 10:59:04;;;;;;;4.40;3.65;;;;;;;27.23;23.09;99174.63;5070620;28;20479;-61
2023/06/27 11:01:36;;;;;;;6.18;3.20;;;;;;;27.29;23.20;99183.78;5069836;28;20032;-57
2023/06/27 11:04:17;;;;;;;4.07;3.63;;;;;;;27.54;22.72;99171.56;5079270;28;20752;-58
2023/06/27 11:06:47;;;;;;;5.20;3.58;;;;;;;27.42;22.83;99171.63;5090969;28;20494;-58
2023/06/27 11:09:16;;;;;;;5.28;3.40;;;;;;;27.49;23.12;99170.38;5088977;28;20024;-55
2023/06/27 11:11:53;;;;;;;6.13;3.40;;;;;;;27.69;22.34;99171.78;5091818;28;20442;-55
2023/06/27 11:14:36;;;;;;;7.85;3.53;;;;;;;27.66;22.79;99180.56;5092051;28;20127;-51
2023/06/27 11:17:03;;;;;;;5.72;3.40;;;;;;;27.44;23.02;99174.94;5079463;28;20033;-58
2023/06/27 11:19:30;;;;;;;5.85;4.10;;;;;;;27.50;22.92;99176.72;5071792;28;20045;-54
2023/06/27 11:21:57;;;;;;;6.07;3.78;;;;;;;27.39;22.43;99158.38;5071223;28;20032;-55
2023/06/27 11:24:24;;;;;;;6.50;3.70;;;;;;;27.26;22.75;99163.16;5071999;28;20450;-55
2023/06/27 11:26:51;;;;;;;6.30;3.45;;;;;;;27.00;23.26;99173.72;5071557;28;20466;-56
2023/06/27 11:29:17;;;;;;;6.50;3.72;;;;;;;27.07;23.12;99163.41;5074593;28;20034;-55
2023/06/27 11:31:43;;;;;;;4.57;3.63;;;;;;;27.21;22.50;99154.81;5068258;28;20024;-57